WMT758 LATI-LIBD
Flight info
| Callsign | WMT758 |
|---|---|
| Flight time | 0h 35m |
| Altitude | 18000 |
| Route | DIRES DCT PAPIZ DCT ENOXA |
| Aircraft | A321/M-SDE3FGHIRWY/LB1 |
Departure
| Time | 2026-04-20 17:42 |
|---|---|
| Airport | Tirana International Airport Mother Teresa (LATI) |
Arrival
| Time | 2026-04-20 18:18 |
|---|---|
| Airport | Bari Karol Wojtyła International Airport (LIBD) |
| Time | Latitude | Longitude | Altitude | Speed | Heading |
|---|---|---|---|---|---|
| 2026-04-20 17:08 | 41.42027 | 19.71504 | 123 ft | 0 kts | 264° |
| 2026-04-20 17:32 | 41.42027 | 19.71506 | 122 ft | 2 kts | 264° |
| 2026-04-20 17:32 | 41.42027 | 19.71538 | 122 ft | 4 kts | 288° |
| 2026-04-20 17:32 | 41.42014 | 19.71567 | 119 ft | 4 kts | 330° |
| 2026-04-20 17:33 | 41.41999 | 19.71574 | 118 ft | 1 kts | 354° |
| 2026-04-20 17:33 | 41.41996 | 19.71574 | 123 ft | 0 kts | 354° |
| 2026-04-20 17:37 | 41.41997 | 19.71574 | 123 ft | 0 kts | 354° |
| 2026-04-20 17:37 | 41.42012 | 19.71572 | 120 ft | 5 kts | 354° |
| 2026-04-20 17:37 | 41.42056 | 19.71566 | 120 ft | 7 kts | 354° |
| 2026-04-20 17:38 | 41.42113 | 19.71558 | 122 ft | 9 kts | 354° |
| 2026-04-20 17:38 | 41.42183 | 19.71549 | 121 ft | 11 kts | 354° |
| 2026-04-20 17:38 | 41.42264 | 19.71537 | 118 ft | 13 kts | 354° |
| 2026-04-20 17:38 | 41.42357 | 19.71525 | 117 ft | 14 kts | 354° |
| 2026-04-20 17:39 | 41.42461 | 19.71511 | 116 ft | 16 kts | 354° |
| 2026-04-20 17:39 | 41.42572 | 19.71496 | 116 ft | 12 kts | 354° |
| 2026-04-20 17:39 | 41.42620 | 19.71490 | 117 ft | 7 kts | 354° |
| 2026-04-20 17:39 | 41.42659 | 19.71523 | 116 ft | 8 kts | 66° |
| 2026-04-20 17:40 | 41.42668 | 19.71598 | 116 ft | 9 kts | 84° |
| 2026-04-20 17:40 | 41.42674 | 19.71685 | 117 ft | 10 kts | 84° |
| 2026-04-20 17:40 | 41.42682 | 19.71782 | 115 ft | 11 kts | 84° |
| 2026-04-20 17:40 | 41.42687 | 19.71858 | 119 ft | 6 kts | 84° |
| 2026-04-20 17:41 | 41.42666 | 19.71896 | 115 ft | 6 kts | 166° |
| 2026-04-20 17:41 | 41.42616 | 19.71904 | 116 ft | 10 kts | 173° |
| 2026-04-20 17:41 | 41.42382 | 19.71935 | 119 ft | 68 kts | 174° |
| 2026-04-20 17:41 | 41.41675 | 19.72029 | 125 ft | 133 kts | 174° |
| 2026-04-20 17:42 | 41.40596 | 19.72177 | 315 ft | 164 kts | 174° |
| 2026-04-20 17:42 | 41.39487 | 19.72337 | 1071 ft | 159 kts | 175° |
| 2026-04-20 17:42 | 41.38392 | 19.72489 | 1792 ft | 158 kts | 175° |
| 2026-04-20 17:42 | 41.37241 | 19.72635 | 2203 ft | 175 kts | 174° |
| 2026-04-20 17:43 | 41.35967 | 19.72807 | 2506 ft | 193 kts | 174° |
| 2026-04-20 17:43 | 41.34567 | 19.72991 | 2771 ft | 212 kts | 175° |
| 2026-04-20 17:43 | 41.33025 | 19.73183 | 2937 ft | 235 kts | 176° |
| 2026-04-20 17:43 | 41.31369 | 19.73394 | 3384 ft | 248 kts | 175° |
| 2026-04-20 17:44 | 41.29597 | 19.73628 | 3869 ft | 261 kts | 176° |
| 2026-04-20 17:44 | 41.27772 | 19.73866 | 4562 ft | 267 kts | 176° |
| 2026-04-20 17:44 | 41.25916 | 19.73972 | 5289 ft | 268 kts | 191° |
| 2026-04-20 17:44 | 41.24182 | 19.73123 | 5992 ft | 267 kts | 214° |
| 2026-04-20 17:45 | 41.22816 | 19.71476 | 6697 ft | 266 kts | 238° |
| 2026-04-20 17:45 | 41.21880 | 19.69352 | 7432 ft | 268 kts | 243° |
| 2026-04-20 17:45 | 41.20952 | 19.67193 | 8147 ft | 271 kts | 242° |
| 2026-04-20 17:45 | 41.20001 | 19.65011 | 8862 ft | 274 kts | 243° |
| 2026-04-20 17:46 | 41.19050 | 19.62842 | 9560 ft | 277 kts | 243° |
| 2026-04-20 17:46 | 41.18072 | 19.60617 | 10240 ft | 282 kts | 244° |
| 2026-04-20 17:46 | 41.17050 | 19.58274 | 10440 ft | 304 kts | 243° |
| 2026-04-20 17:46 | 41.15952 | 19.55748 | 10576 ft | 327 kts | 243° |
| 2026-04-20 17:47 | 41.14775 | 19.53051 | 10708 ft | 347 kts | 243° |
| 2026-04-20 17:47 | 41.13543 | 19.50242 | 11168 ft | 356 kts | 243° |
| 2026-04-20 17:47 | 41.12285 | 19.47389 | 11790 ft | 360 kts | 243° |
| 2026-04-20 17:47 | 41.11016 | 19.44516 | 12434 ft | 362 kts | 243° |
| 2026-04-20 17:48 | 41.09741 | 19.41622 | 13087 ft | 365 kts | 243° |
| 2026-04-20 17:48 | 41.08452 | 19.38695 | 13754 ft | 368 kts | 243° |
| 2026-04-20 17:48 | 41.07157 | 19.35754 | 14348 ft | 371 kts | 243° |
| 2026-04-20 17:48 | 41.05850 | 19.32786 | 14922 ft | 374 kts | 243° |
| 2026-04-20 17:49 | 41.04534 | 19.29798 | 15516 ft | 377 kts | 243° |
| 2026-04-20 17:49 | 41.03205 | 19.26785 | 16103 ft | 380 kts | 243° |
| 2026-04-20 17:49 | 41.01862 | 19.23750 | 16680 ft | 383 kts | 243° |
| 2026-04-20 17:49 | 41.00508 | 19.20693 | 17261 ft | 387 kts | 244° |
| 2026-04-20 17:50 | 40.99141 | 19.17610 | 17812 ft | 390 kts | 244° |
| 2026-04-20 17:50 | 40.97762 | 19.14498 | 17974 ft | 392 kts | 244° |
| 2026-04-20 17:50 | 40.96362 | 19.11326 | 18007 ft | 407 kts | 244° |
| 2026-04-20 17:50 | 40.94918 | 19.08051 | 18010 ft | 416 kts | 243° |
| 2026-04-20 17:51 | 40.93452 | 19.04741 | 18008 ft | 418 kts | 243° |
| 2026-04-20 17:51 | 40.92019 | 19.01407 | 18005 ft | 416 kts | 248° |
| 2026-04-20 17:51 | 40.91010 | 18.97857 | 18002 ft | 411 kts | 258° |
| 2026-04-20 17:51 | 40.90548 | 18.94146 | 18001 ft | 407 kts | 269° |
| 2026-04-20 17:52 | 40.90630 | 18.90425 | 18003 ft | 404 kts | 279° |
| 2026-04-20 17:52 | 40.91231 | 18.86813 | 18004 ft | 402 kts | 289° |
| 2026-04-20 17:52 | 40.92112 | 18.83299 | 18002 ft | 402 kts | 289° |
| 2026-04-20 17:52 | 40.92983 | 18.79789 | 18002 ft | 402 kts | 289° |
| 2026-04-20 17:53 | 40.93846 | 18.76277 | 17986 ft | 402 kts | 289° |
| 2026-04-20 17:53 | 40.94711 | 18.72760 | 17983 ft | 402 kts | 289° |
| 2026-04-20 17:53 | 40.95575 | 18.69243 | 17974 ft | 402 kts | 289° |
| 2026-04-20 17:53 | 40.96437 | 18.65721 | 17973 ft | 402 kts | 289° |
| 2026-04-20 17:54 | 40.97294 | 18.62199 | 17972 ft | 402 kts | 289° |
| 2026-04-20 17:54 | 40.98151 | 18.58679 | 17975 ft | 402 kts | 289° |
| 2026-04-20 17:54 | 40.99013 | 18.55156 | 17967 ft | 402 kts | 289° |
| 2026-04-20 17:54 | 40.99875 | 18.51626 | 17967 ft | 403 kts | 289° |
| 2026-04-20 17:55 | 41.00737 | 18.48102 | 17971 ft | 403 kts | 289° |
| 2026-04-20 17:55 | 41.01599 | 18.44569 | 17970 ft | 403 kts | 289° |
| 2026-04-20 17:55 | 41.02458 | 18.41047 | 17963 ft | 403 kts | 289° |
| 2026-04-20 17:55 | 41.03315 | 18.37506 | 17961 ft | 403 kts | 289° |
| 2026-04-20 17:56 | 41.04157 | 18.34013 | 17960 ft | 403 kts | 289° |
| 2026-04-20 17:56 | 41.05009 | 18.30479 | 17962 ft | 403 kts | 289° |
| 2026-04-20 17:56 | 41.05862 | 18.26933 | 17962 ft | 403 kts | 289° |
| 2026-04-20 17:56 | 41.06714 | 18.23397 | 17962 ft | 403 kts | 289° |
| 2026-04-20 17:57 | 41.07564 | 18.19857 | 17963 ft | 403 kts | 289° |
| 2026-04-20 17:57 | 41.08414 | 18.16319 | 17962 ft | 403 kts | 289° |
| 2026-04-20 17:57 | 41.09262 | 18.12784 | 17963 ft | 403 kts | 289° |
| 2026-04-20 17:57 | 41.10105 | 18.09249 | 17963 ft | 403 kts | 288° |
| 2026-04-20 17:58 | 41.10951 | 18.05703 | 17965 ft | 403 kts | 289° |
| 2026-04-20 17:58 | 41.11798 | 18.02160 | 17966 ft | 403 kts | 289° |
| 2026-04-20 17:58 | 41.12646 | 17.98611 | 17963 ft | 403 kts | 289° |
| 2026-04-20 17:58 | 41.13488 | 17.95069 | 17962 ft | 403 kts | 289° |
| 2026-04-20 17:59 | 41.14332 | 17.91525 | 17963 ft | 403 kts | 289° |
| 2026-04-20 17:59 | 41.15179 | 17.87975 | 17961 ft | 404 kts | 289° |
| 2026-04-20 17:59 | 41.16024 | 17.84421 | 17963 ft | 403 kts | 288° |
| 2026-04-20 17:59 | 41.16864 | 17.80878 | 17961 ft | 403 kts | 288° |
| 2026-04-20 18:00 | 41.17419 | 17.78525 | 17960 ft | 403 kts | 288° |
| 2026-04-20 18:00 | 41.18252 | 17.74971 | 17962 ft | 403 kts | 288° |
| 2026-04-20 18:00 | 41.19082 | 17.71418 | 17958 ft | 403 kts | 288° |
| 2026-04-20 18:00 | 41.19902 | 17.67861 | 17958 ft | 403 kts | 287° |
| 2026-04-20 18:01 | 41.20439 | 17.64202 | 17959 ft | 404 kts | 279° |
| 2026-04-20 18:01 | 41.20843 | 17.60501 | 17956 ft | 404 kts | 280° |
| 2026-04-20 18:01 | 41.21249 | 17.56801 | 17956 ft | 404 kts | 280° |
| 2026-04-20 18:01 | 41.21655 | 17.53117 | 17957 ft | 405 kts | 280° |
| 2026-04-20 18:02 | 41.22059 | 17.49412 | 17959 ft | 405 kts | 280° |
| 2026-04-20 18:02 | 41.22463 | 17.45703 | 17961 ft | 405 kts | 280° |
| 2026-04-20 18:02 | 41.22867 | 17.42005 | 17962 ft | 405 kts | 280° |
| 2026-04-20 18:02 | 41.23265 | 17.38339 | 17748 ft | 394 kts | 280° |
| 2026-04-20 18:03 | 41.23649 | 17.34758 | 17478 ft | 390 kts | 279° |
| 2026-04-20 18:03 | 41.24027 | 17.31203 | 17214 ft | 388 kts | 279° |
| 2026-04-20 18:03 | 41.24404 | 17.27671 | 16840 ft | 382 kts | 279° |
| 2026-04-20 18:03 | 41.24774 | 17.24198 | 16327 ft | 377 kts | 279° |
| 2026-04-20 18:04 | 41.25139 | 17.20767 | 15823 ft | 372 kts | 279° |
| 2026-04-20 18:04 | 41.25498 | 17.17385 | 15323 ft | 368 kts | 279° |
| 2026-04-20 18:04 | 41.25854 | 17.14038 | 14825 ft | 363 kts | 279° |
| 2026-04-20 18:04 | 41.26206 | 17.10739 | 14334 ft | 358 kts | 279° |
| 2026-04-20 18:05 | 41.26884 | 17.04295 | 13295 ft | 350 kts | 279° |
| 2026-04-20 18:05 | 41.27218 | 17.01107 | 12781 ft | 345 kts | 279° |
| 2026-04-20 18:05 | 41.27547 | 16.97960 | 12271 ft | 343 kts | 279° |
| 2026-04-20 18:06 | 41.27871 | 16.94835 | 11753 ft | 340 kts | 278° |
| 2026-04-20 18:06 | 41.28192 | 16.91729 | 11234 ft | 338 kts | 278° |
| 2026-04-20 18:06 | 41.28507 | 16.88664 | 10971 ft | 327 kts | 278° |
| 2026-04-20 18:06 | 41.28797 | 16.85731 | 10826 ft | 313 kts | 276° |
| 2026-04-20 18:07 | 41.28762 | 16.82898 | 10704 ft | 301 kts | 264° |
| 2026-04-20 18:07 | 41.28297 | 16.80235 | 10576 ft | 291 kts | 252° |
| 2026-04-20 18:07 | 41.27470 | 16.77820 | 10390 ft | 285 kts | 242° |
| 2026-04-20 18:07 | 41.26465 | 16.75572 | 10155 ft | 281 kts | 242° |
| 2026-04-20 18:08 | 41.25468 | 16.73341 | 9909 ft | 280 kts | 242° |
| 2026-04-20 18:08 | 41.24479 | 16.71123 | 9787 ft | 279 kts | 242° |
| 2026-04-20 18:08 | 41.23489 | 16.68903 | 9647 ft | 279 kts | 242° |
| 2026-04-20 18:08 | 41.22504 | 16.66690 | 9515 ft | 277 kts | 242° |
| 2026-04-20 18:09 | 41.21538 | 16.64522 | 9381 ft | 267 kts | 242° |
| 2026-04-20 18:09 | 41.20656 | 16.62405 | 9198 ft | 258 kts | 250° |
| 2026-04-20 18:09 | 41.20021 | 16.60194 | 8857 ft | 256 kts | 252° |
| 2026-04-20 18:09 | 41.19402 | 16.57986 | 8467 ft | 254 kts | 252° |
| 2026-04-20 18:10 | 41.18782 | 16.55804 | 7961 ft | 251 kts | 251° |
| 2026-04-20 18:10 | 41.18167 | 16.53665 | 7456 ft | 246 kts | 251° |
| 2026-04-20 18:10 | 41.17558 | 16.51548 | 6975 ft | 244 kts | 251° |
| 2026-04-20 18:10 | 41.16960 | 16.49458 | 6494 ft | 241 kts | 251° |
| 2026-04-20 18:11 | 41.16372 | 16.47390 | 5935 ft | 239 kts | 251° |
| 2026-04-20 18:11 | 41.15786 | 16.45348 | 5512 ft | 232 kts | 250° |
| 2026-04-20 18:11 | 41.15216 | 16.43374 | 5096 ft | 227 kts | 251° |
| 2026-04-20 18:11 | 41.14548 | 16.41500 | 4641 ft | 226 kts | 234° |
| 2026-04-20 18:12 | 41.13345 | 16.40162 | 4331 ft | 230 kts | 208° |
| 2026-04-20 18:12 | 41.11772 | 16.39754 | 4024 ft | 236 kts | 178° |
| 2026-04-20 18:12 | 41.10233 | 16.40457 | 3724 ft | 242 kts | 146° |
| 2026-04-20 18:12 | 41.09022 | 16.42008 | 3818 ft | 247 kts | 137° |
| 2026-04-20 18:13 | 41.07811 | 16.43645 | 3921 ft | 250 kts | 137° |
| 2026-04-20 18:13 | 41.06650 | 16.45364 | 4009 ft | 252 kts | 123° |
| 2026-04-20 18:13 | 41.06077 | 16.47549 | 4026 ft | 255 kts | 94° |
| 2026-04-20 18:13 | 41.06320 | 16.49847 | 3895 ft | 252 kts | 67° |
| 2026-04-20 18:14 | 41.06988 | 16.52005 | 3646 ft | 253 kts | 66° |
| 2026-04-20 18:14 | 41.07643 | 16.54154 | 3357 ft | 250 kts | 67° |
| 2026-04-20 18:14 | 41.08241 | 16.56255 | 2999 ft | 239 kts | 68° |
| 2026-04-20 18:14 | 41.08806 | 16.58306 | 2660 ft | 235 kts | 68° |
| 2026-04-20 18:15 | 41.09380 | 16.60329 | 2354 ft | 233 kts | 67° |
| 2026-04-20 18:15 | 41.09944 | 16.62295 | 2054 ft | 220 kts | 68° |
| 2026-04-20 18:15 | 41.10462 | 16.64120 | 1750 ft | 204 kts | 69° |
| 2026-04-20 18:15 | 41.10944 | 16.65812 | 1507 ft | 186 kts | 69° |
| 2026-04-20 18:16 | 41.11381 | 16.67354 | 1272 ft | 170 kts | 68° |
| 2026-04-20 18:16 | 41.11783 | 16.68761 | 1029 ft | 157 kts | 70° |
| 2026-04-20 18:16 | 41.12161 | 16.70075 | 826 ft | 150 kts | 70° |
| 2026-04-20 18:16 | 41.12524 | 16.71372 | 658 ft | 148 kts | 70° |
| 2026-04-20 18:17 | 41.12881 | 16.72638 | 469 ft | 146 kts | 70° |
| 2026-04-20 18:17 | 41.13236 | 16.73884 | 297 ft | 143 kts | 71° |
| 2026-04-20 18:17 | 41.13585 | 16.75119 | 163 ft | 139 kts | 70° |
| 2026-04-20 18:17 | 41.13878 | 16.76154 | 150 ft | 87 kts | 69° |
| 2026-04-20 18:18 | 41.13985 | 16.76532 | 148 ft | 4 kts | 70° |
| 2026-04-20 18:18 | 41.13999 | 16.76585 | 149 ft | 8 kts | 75° |
| 2026-04-20 18:18 | 41.13994 | 16.76661 | 149 ft | 7 kts | 112° |
| 2026-04-20 18:18 | 41.13980 | 16.76692 | 151 ft | 2 kts | 124° |
| 2026-04-20 18:19 | 41.13979 | 16.76695 | 151 ft | 0 kts | 124° |
| 2026-04-20 18:19 | 41.13970 | 16.76706 | 152 ft | 5 kts | 140° |
| 2026-04-20 18:19 | 41.13925 | 16.76706 | 155 ft | 9 kts | 205° |
| 2026-04-20 18:19 | 41.13854 | 16.76641 | 157 ft | 14 kts | 216° |
| 2026-04-20 18:20 | 41.13805 | 16.76568 | 158 ft | 10 kts | 230° |
| 2026-04-20 18:20 | 41.13748 | 16.76560 | 158 ft | 8 kts | 168° |
| 2026-04-20 18:20 | 41.13690 | 16.76545 | 158 ft | 9 kts | 202° |
| 2026-04-20 18:20 | 41.13644 | 16.76484 | 159 ft | 10 kts | 245° |
| 2026-04-20 18:21 | 41.13617 | 16.76391 | 159 ft | 11 kts | 249° |
| 2026-04-20 18:21 | 41.13587 | 16.76286 | 159 ft | 12 kts | 249° |
| 2026-04-20 18:21 | 41.13561 | 16.76195 | 159 ft | 8 kts | 249° |
| 2026-04-20 18:21 | 41.13535 | 16.76161 | 159 ft | 5 kts | 194° |
| 2026-04-20 18:22 | 41.13494 | 16.76174 | 159 ft | 7 kts | 160° |
| 2026-04-20 18:22 | 41.13479 | 16.76182 | 159 ft | 0 kts | 159° |